createdAt,value
2018-03-19T00:00:07.679Z,1.20
2018-03-19T00:02:36.796Z,1.20
2018-03-19T00:05:05.918Z,1.20
2018-03-19T00:07:35.042Z,1.20
2018-03-19T00:10:03.772Z,1.20
2018-03-19T00:12:33.252Z,1.20
2018-03-19T00:15:02.656Z,1.20
2018-03-19T00:17:32.071Z,1.10
2018-03-19T00:20:01.497Z,1.10
2018-03-19T00:22:30.937Z,1.10
2018-03-19T00:25:00.070Z,1.10
2018-03-19T00:27:29.473Z,1.10
2018-03-19T00:29:58.917Z,1.10
2018-03-19T00:32:28.305Z,1.10
2018-03-19T00:34:57.702Z,1.10
2018-03-19T00:37:27.131Z,1.10
2018-03-19T00:39:57.302Z,1.00
2018-03-19T00:42:26.722Z,1.00
2018-03-19T00:44:56.331Z,1.00
2018-03-19T00:47:25.736Z,1.00
2018-03-19T00:49:55.157Z,1.00
2018-03-19T00:52:25.348Z,1.00
2018-03-19T00:54:54.753Z,1.00
2018-03-19T00:57:24.002Z,1.00
2018-03-19T00:59:53.498Z,1.00
2018-03-19T01:02:22.909Z,1.00
2018-03-19T01:04:52.345Z,1.00
2018-03-19T01:07:21.753Z,1.00
2018-03-19T01:09:51.258Z,1.00
2018-03-19T01:12:20.666Z,1.00
2018-03-19T01:14:50.572Z,0.90
2018-03-19T01:17:20.075Z,0.90
2018-03-19T01:19:49.975Z,0.90
2018-03-19T01:22:19.388Z,0.90
2018-03-19T01:24:48.774Z,0.90
2018-03-19T01:27:17.837Z,0.90
2018-03-19T01:29:48.030Z,0.90
2018-03-19T01:32:17.428Z,0.90
2018-03-19T01:34:46.825Z,0.90
2018-03-19T01:37:15.904Z,0.90
2018-03-19T01:39:45.466Z,0.90
2018-03-19T01:42:14.873Z,0.90
2018-03-19T01:44:45.243Z,0.80
2018-03-19T01:47:14.632Z,0.80
2018-03-19T01:49:44.049Z,0.80
2018-03-19T01:52:13.466Z,0.80
2018-03-19T01:54:43.376Z,0.70
2018-03-19T01:57:12.851Z,0.70
2018-03-19T01:59:42.247Z,0.70
2018-03-19T02:02:11.672Z,0.70
2018-03-19T02:04:40.992Z,0.70
2018-03-19T02:07:10.396Z,0.70
2018-03-19T02:09:39.813Z,0.60
2018-03-19T02:12:09.209Z,0.60
2018-03-19T02:14:38.629Z,0.60
2018-03-19T02:17:08.030Z,0.60
2018-03-19T02:19:38.209Z,0.50
2018-03-19T02:22:07.604Z,0.50
2018-03-19T02:24:37.042Z,0.50
2018-03-19T02:27:07.224Z,0.50
2018-03-19T02:29:36.660Z,0.50
2018-03-19T02:32:06.064Z,0.50
2018-03-19T02:34:36.265Z,0.40
2018-03-19T02:37:05.684Z,0.40
2018-03-19T02:39:35.086Z,0.40
2018-03-19T02:42:04.496Z,0.40
2018-03-19T02:44:34.696Z,0.30
2018-03-19T02:47:04.120Z,0.30
2018-03-19T02:49:34.286Z,0.30
2018-03-19T02:52:03.698Z,0.30
2018-03-19T02:54:33.103Z,0.30
2018-03-19T02:57:02.511Z,0.30
2018-03-19T02:59:31.928Z,0.30
2018-03-19T03:02:01.329Z,0.30
2018-03-19T03:04:31.377Z,0.30
2018-03-19T03:07:01.581Z,0.30
2018-03-19T03:09:31.008Z,0.30
2018-03-19T03:12:00.164Z,0.30
2018-03-19T03:14:29.565Z,0.30
2018-03-19T03:16:58.957Z,0.30
2018-03-19T03:19:28.444Z,0.20
2018-03-19T03:21:57.858Z,0.20
2018-03-19T03:24:27.272Z,0.20
2018-03-19T03:26:56.686Z,0.20
2018-03-19T03:29:26.069Z,0.20
2018-03-19T03:31:55.490Z,0.20
2018-03-19T03:34:24.884Z,0.10
2018-03-19T03:36:54.501Z,0.10
2018-03-19T03:39:23.905Z,0.10
2018-03-19T03:41:53.134Z,0.10
2018-03-19T03:44:22.272Z,0.10
2018-03-19T03:46:51.696Z,0.10
2018-03-19T03:49:21.127Z,0.10
2018-03-19T03:51:51.505Z,0.00
2018-03-19T03:54:20.564Z,0.00
2018-03-19T03:56:49.978Z,0.00
2018-03-19T03:59:19.424Z,0.00
2018-03-19T04:01:48.841Z,0.00
2018-03-19T04:04:18.992Z,0.00
2018-03-19T04:06:48.404Z,0.00
2018-03-19T04:09:17.804Z,0.00
2018-03-19T04:11:47.246Z,0.00
2018-03-19T04:14:16.650Z,-0.10
2018-03-19T04:16:46.547Z,-0.10
2018-03-19T04:19:15.932Z,-0.10
2018-03-19T04:21:45.335Z,-0.10
2018-03-19T04:24:14.743Z,-0.10
2018-03-19T04:26:44.370Z,-0.10
2018-03-19T04:29:13.767Z,-0.10
2018-03-19T04:31:43.202Z,-0.20
2018-03-19T04:34:12.640Z,-0.20
2018-03-19T04:36:42.808Z,-0.20
2018-03-19T04:39:12.229Z,-0.20
2018-03-19T04:41:41.625Z,-0.20
2018-03-19T04:44:10.705Z,-0.20
2018-03-19T04:46:41.017Z,-0.20
2018-03-19T04:49:10.955Z,-0.30
2018-03-19T04:51:40.415Z,-0.30
2018-03-19T04:54:10.589Z,-0.30
2018-03-19T04:56:40.810Z,-0.30
2018-03-19T04:59:11.003Z,-0.30
2018-03-19T05:01:40.425Z,-0.30
2018-03-19T05:04:09.840Z,-0.30
2018-03-19T05:06:40.090Z,-0.40
2018-03-19T05:09:10.258Z,-0.40
2018-03-19T05:11:39.676Z,-0.40
2018-03-19T05:14:09.109Z,-0.40
2018-03-19T05:16:38.526Z,-0.40
2018-03-19T05:19:07.965Z,-0.40
2018-03-19T05:21:37.374Z,-0.40
2018-03-19T05:24:07.273Z,-0.50
2018-03-19T05:26:36.403Z,-0.50
2018-03-19T05:29:06.570Z,-0.50
2018-03-19T05:31:36.743Z,-0.50
2018-03-19T05:34:06.915Z,-0.50
2018-03-19T05:36:36.341Z,-0.60
2018-03-19T05:39:05.065Z,-0.60
2018-03-19T05:41:34.483Z,-0.60
2018-03-19T05:44:03.882Z,-0.60
2018-03-19T05:46:33.305Z,-0.60
2018-03-19T05:49:02.756Z,-0.60
2018-03-19T05:51:32.157Z,-0.70
2018-03-19T05:54:01.614Z,-0.70
2018-03-19T05:56:30.694Z,-0.70
2018-03-19T05:59:00.329Z,-0.70
2018-03-19T06:01:29.718Z,-0.70
2018-03-19T06:03:58.865Z,-0.70
2018-03-19T06:06:28.290Z,-0.70
2018-03-19T06:08:58.460Z,-0.70
2018-03-19T06:11:27.880Z,-0.70
2018-03-19T06:13:57.292Z,-0.70
2018-03-19T06:16:27.467Z,-0.60
2018-03-19T06:18:56.888Z,-0.60
2018-03-19T06:21:26.316Z,-0.60
2018-03-19T06:23:55.746Z,-0.50
2018-03-19T06:26:25.162Z,-0.40
2018-03-19T06:28:54.053Z,-0.30
2018-03-19T06:31:23.511Z,-0.30
2018-03-19T06:33:53.016Z,-0.20
2018-03-19T06:36:22.459Z,-0.20
2018-03-19T06:38:51.900Z,-0.10
2018-03-19T06:41:21.318Z,-0.10
2018-03-19T06:43:50.740Z,-0.10
2018-03-19T06:46:20.929Z,-0.10
2018-03-19T06:48:50.359Z,-0.10
2018-03-19T06:51:20.248Z,-0.10
2018-03-19T06:53:49.677Z,0.00
2018-03-19T06:56:19.086Z,0.00
2018-03-19T06:58:49.261Z,0.00
2018-03-19T07:01:18.676Z,0.00
2018-03-19T07:03:48.102Z,0.10
2018-03-19T07:06:17.559Z,0.10
2018-03-19T07:08:46.963Z,0.10
2018-03-19T07:11:16.374Z,0.20
2018-03-19T07:13:45.830Z,0.20
2018-03-19T07:16:15.995Z,0.30
2018-03-19T07:18:45.407Z,0.30
2018-03-19T07:21:14.823Z,0.30
2018-03-19T07:23:44.226Z,0.40
2018-03-19T07:26:13.645Z,0.40
2018-03-19T07:28:43.071Z,0.40
2018-03-19T07:31:13.437Z,0.50
2018-03-19T07:33:42.862Z,0.50
2018-03-19T07:36:12.269Z,0.50
2018-03-19T07:38:41.696Z,0.60
2018-03-19T07:41:11.878Z,0.70
2018-03-19T07:43:41.289Z,0.60
2018-03-19T07:46:10.889Z,0.70
2018-03-19T07:48:40.279Z,0.70
2018-03-19T07:51:09.697Z,0.80
2018-03-19T07:53:39.080Z,0.80
2018-03-19T07:56:08.303Z,0.80
2018-03-19T07:58:37.714Z,0.80
2018-03-19T08:01:07.890Z,0.90
2018-03-19T08:03:37.317Z,0.90
2018-03-19T08:06:06.713Z,1.00
2018-03-19T08:08:36.130Z,1.10
2018-03-19T08:11:05.551Z,1.10
2018-03-19T08:13:34.982Z,1.20
2018-03-19T08:16:04.393Z,1.20
2018-03-19T08:18:33.866Z,1.20
2018-03-19T08:21:03.502Z,1.30
2018-03-19T08:23:32.922Z,1.40
2018-03-19T08:26:02.328Z,1.40
2018-03-19T08:28:31.735Z,1.50
2018-03-19T08:31:01.150Z,1.50
2018-03-19T08:33:30.556Z,1.60
2018-03-19T08:36:00.050Z,1.60
2018-03-19T08:38:29.648Z,1.70
2018-03-19T08:40:59.052Z,1.80
2018-03-19T08:43:28.454Z,1.90
2018-03-19T08:45:57.877Z,2.00
2018-03-19T08:48:27.290Z,2.00
2018-03-19T08:50:57.475Z,2.20
2018-03-19T08:53:26.965Z,2.20
2018-03-19T08:55:57.068Z,2.20
2018-03-19T08:58:26.495Z,2.30
2018-03-19T09:00:55.885Z,2.40
2018-03-19T09:03:25.300Z,2.40
2018-03-19T09:05:54.705Z,2.50
2018-03-19T09:08:24.109Z,2.50
2018-03-19T09:10:53.525Z,2.60
2018-03-19T09:13:22.943Z,2.60
2018-03-19T09:15:52.340Z,2.70
2018-03-19T09:18:21.769Z,2.70
2018-03-19T09:20:51.337Z,2.70
2018-03-19T09:23:20.745Z,2.80
2018-03-19T09:25:50.161Z,2.80
2018-03-19T09:28:19.101Z,2.80
2018-03-19T09:30:48.521Z,2.90
2018-03-19T09:33:17.934Z,2.90
2018-03-19T09:35:47.358Z,3.00
2018-03-19T09:38:16.793Z,3.00
2018-03-19T09:40:46.212Z,3.10
2018-03-19T09:43:15.624Z,3.10
2018-03-19T09:45:45.020Z,3.20
2018-03-19T09:48:14.146Z,3.20
2018-03-19T09:50:43.711Z,3.30
2018-03-19T09:53:13.323Z,3.40
2018-03-19T09:55:42.756Z,3.50
2018-03-19T09:58:12.157Z,3.60
2018-03-19T10:00:41.572Z,3.60
2018-03-19T10:03:11.107Z,3.70
2018-03-19T10:05:41.085Z,3.80
2018-03-19T10:08:10.578Z,3.80
2018-03-19T10:10:40.136Z,3.90
2018-03-19T10:13:10.354Z,4.00
2018-03-19T10:15:39.806Z,4.00
2018-03-19T10:18:09.224Z,4.10
2018-03-19T10:20:38.647Z,4.10
2018-03-19T10:23:07.756Z,4.20
2018-03-19T10:25:37.171Z,4.20
2018-03-19T10:28:07.326Z,4.40
2018-03-19T10:30:36.747Z,4.40
2018-03-19T10:33:06.159Z,4.40
2018-03-19T10:35:35.574Z,4.50
2018-03-19T10:38:05.746Z,4.70
2018-03-19T10:40:35.145Z,4.60
2018-03-19T10:43:04.559Z,4.70
2018-03-19T10:45:33.967Z,4.80
2018-03-19T10:48:03.371Z,4.80
2018-03-19T10:50:32.853Z,4.90
2018-03-19T10:53:02.253Z,4.90
2018-03-19T10:55:31.830Z,5.00
2018-03-19T10:58:01.250Z,5.10
2018-03-19T11:00:30.639Z,5.10
2018-03-19T11:03:05.638Z,5.20
2018-03-19T11:05:40.606Z,5.20
2018-03-19T11:08:10.580Z,5.30
2018-03-19T11:10:39.703Z,5.30
2018-03-19T11:13:09.870Z,5.30
2018-03-19T11:15:39.296Z,5.30
2018-03-19T11:18:08.696Z,5.30
2018-03-19T11:20:38.142Z,5.30
2018-03-19T11:23:07.724Z,5.40
2018-03-19T11:25:37.145Z,5.40
2018-03-19T11:28:07.319Z,5.40
2018-03-19T11:30:36.727Z,5.40
2018-03-19T11:33:06.157Z,5.40
2018-03-19T11:35:37.091Z,5.50
2018-03-19T11:38:06.696Z,5.50
2018-03-19T11:40:36.156Z,5.50
2018-03-19T11:43:05.575Z,5.50
2018-03-19T11:45:35.014Z,5.50
2018-03-19T11:48:04.174Z,5.50
2018-03-19T11:50:33.586Z,5.60
2018-03-19T11:53:03.021Z,5.60
2018-03-19T11:55:32.437Z,5.70
2018-03-19T11:58:02.613Z,5.70
2018-03-19T12:00:32.241Z,5.70
2018-03-19T12:03:01.630Z,5.80
2018-03-19T12:05:31.054Z,5.80
2018-03-19T12:08:00.565Z,5.80
2018-03-19T12:10:30.798Z,5.90
2018-03-19T12:13:00.190Z,5.90
2018-03-19T12:15:30.394Z,6.00
2018-03-19T12:17:59.809Z,6.00
2018-03-19T12:20:29.247Z,6.10
2018-03-19T12:22:58.473Z,6.10
2018-03-19T12:25:27.872Z,6.10
2018-03-19T12:27:57.308Z,6.20
2018-03-19T12:30:26.718Z,6.30
2018-03-19T12:32:56.137Z,6.30
2018-03-19T12:35:26.302Z,6.40
2018-03-19T12:37:55.732Z,6.40
2018-03-19T12:40:25.158Z,6.50
2018-03-19T12:42:55.342Z,6.50
2018-03-19T12:45:24.821Z,6.50
2018-03-19T12:47:54.251Z,6.50
2018-03-19T12:50:23.658Z,6.50
2018-03-19T12:52:53.088Z,6.60
2018-03-19T12:55:23.259Z,6.60
2018-03-19T12:57:52.692Z,6.60
2018-03-19T13:00:22.119Z,6.60
2018-03-19T13:02:51.299Z,6.70
2018-03-19T13:05:21.460Z,6.70
2018-03-19T13:07:50.916Z,6.70
2018-03-19T13:10:20.300Z,6.70
2018-03-19T13:12:49.742Z,6.80
2018-03-19T13:15:19.931Z,6.80
2018-03-19T13:17:49.410Z,6.80
2018-03-19T13:20:19.004Z,6.90
2018-03-19T13:22:48.410Z,6.90
2018-03-19T13:25:18.065Z,6.90
2018-03-19T13:27:47.461Z,6.90
2018-03-19T13:30:16.882Z,7.00
2018-03-19T13:32:47.054Z,7.10
2018-03-19T13:35:16.464Z,7.10
2018-03-19T13:37:45.877Z,7.10
2018-03-19T13:40:15.341Z,7.20
2018-03-19T13:42:44.618Z,7.20
2018-03-19T13:45:14.806Z,7.30
2018-03-19T13:47:44.213Z,7.30
2018-03-19T13:50:13.652Z,7.30
2018-03-19T13:52:43.843Z,7.30
2018-03-19T13:55:14.032Z,7.30
2018-03-19T13:57:43.450Z,7.30
2018-03-19T14:00:12.868Z,7.40
2018-03-19T14:02:42.274Z,7.40
2018-03-19T14:05:11.697Z,7.40
2018-03-19T14:07:41.894Z,7.40
2018-03-19T14:10:11.781Z,7.40
2018-03-19T14:12:41.228Z,7.40
2018-03-19T14:15:10.636Z,7.50
2018-03-19T14:17:40.106Z,7.50
2018-03-19T14:20:09.510Z,7.50
2018-03-19T14:22:38.586Z,7.50
2018-03-19T14:25:07.994Z,7.60
2018-03-19T14:27:37.496Z,7.60
2018-03-19T14:30:07.043Z,7.60
2018-03-19T14:32:37.233Z,7.70
2018-03-19T14:35:06.635Z,7.70
2018-03-19T14:37:36.050Z,7.70
2018-03-19T14:40:05.138Z,7.70
2018-03-19T14:42:34.571Z,7.70
2018-03-19T14:45:04.100Z,7.70
2018-03-19T14:47:34.473Z,7.70
2018-03-19T14:50:03.562Z,7.70
2018-03-19T14:52:32.974Z,7.70
2018-03-19T14:55:02.415Z,7.70
2018-03-19T14:57:31.817Z,7.70
2018-03-19T15:00:01.244Z,7.70
2018-03-19T15:02:30.401Z,7.70
2018-03-19T15:05:00.629Z,7.70
2018-03-19T15:07:30.904Z,7.70
2018-03-19T15:10:00.294Z,7.70
2018-03-19T15:12:29.729Z,7.70
2018-03-19T15:15:00.669Z,7.60
2018-03-19T15:17:30.274Z,7.60
2018-03-19T15:20:00.630Z,7.60
2018-03-19T15:22:30.050Z,7.60
2018-03-19T15:24:59.469Z,7.60
2018-03-19T15:27:28.890Z,7.60
2018-03-19T15:29:58.282Z,7.60
2018-03-19T15:32:27.410Z,7.60
2018-03-19T15:34:56.882Z,7.70
2018-03-19T15:37:26.248Z,7.70
2018-03-19T15:39:55.663Z,7.70
2018-03-19T15:42:25.081Z,7.70
2018-03-19T15:44:54.495Z,7.70
2018-03-19T15:47:24.130Z,7.70
2018-03-19T15:49:53.542Z,7.70
2018-03-19T15:52:22.952Z,7.70
2018-03-19T15:54:52.371Z,7.70
2018-03-19T15:57:21.809Z,7.70
2018-03-19T15:59:51.360Z,7.70
2018-03-19T16:02:21.544Z,7.70
2018-03-19T16:04:50.946Z,7.70
2018-03-19T16:07:20.346Z,7.60
2018-03-19T16:09:49.754Z,7.60
2018-03-19T16:12:19.160Z,7.60
2018-03-19T16:14:48.614Z,7.50
2018-03-19T16:17:18.201Z,7.50
2018-03-19T16:19:47.623Z,7.40
2018-03-19T16:22:17.037Z,7.40
2018-03-19T16:24:46.468Z,7.30
2018-03-19T16:27:15.923Z,7.30
2018-03-19T16:29:45.494Z,7.30
2018-03-19T16:32:14.948Z,7.20
2018-03-19T16:34:45.136Z,7.20
2018-03-19T16:37:14.541Z,7.20
2018-03-19T16:39:44.737Z,7.10
2018-03-19T16:42:14.165Z,7.10
2018-03-19T16:44:43.744Z,7.00
2018-03-19T16:47:13.229Z,7.00
2018-03-19T16:49:43.574Z,6.90
2018-03-19T16:52:13.003Z,6.90
2018-03-19T16:54:42.427Z,6.90
2018-03-19T16:57:11.577Z,6.80
2018-03-19T16:59:40.985Z,6.80
2018-03-19T17:02:10.373Z,6.80
2018-03-19T17:04:39.787Z,6.70
2018-03-19T17:07:09.292Z,6.70
2018-03-19T17:09:38.839Z,6.60
2018-03-19T17:12:08.236Z,6.60
2018-03-19T17:14:38.410Z,6.50
2018-03-19T17:17:07.809Z,6.40
2018-03-19T17:19:37.213Z,6.40
2018-03-19T17:22:06.295Z,6.30
2018-03-19T17:24:35.714Z,6.20
2018-03-19T17:27:05.156Z,6.10
2018-03-19T17:29:35.401Z,6.00
2018-03-19T17:32:04.156Z,5.90
2018-03-19T17:34:33.580Z,5.90
2018-03-19T17:37:02.990Z,5.80
2018-03-19T17:39:32.395Z,5.80
2018-03-19T17:42:01.548Z,5.70
2018-03-19T17:44:30.976Z,5.60
2018-03-19T17:47:01.179Z,5.40
2018-03-19T17:49:32.110Z,5.30
2018-03-19T17:52:01.525Z,5.30
2018-03-19T17:54:32.525Z,5.20
2018-03-19T17:57:01.948Z,5.10
2018-03-19T17:59:32.293Z,5.10
2018-03-19T18:02:02.469Z,4.90
2018-03-19T18:04:31.874Z,4.80
2018-03-19T18:07:01.309Z,4.80
2018-03-19T18:09:30.909Z,4.70
2018-03-19T18:12:00.314Z,4.60
2018-03-19T18:14:29.722Z,4.60
2018-03-19T18:16:59.940Z,4.40
2018-03-19T18:19:30.151Z,4.30
2018-03-19T18:22:00.214Z,4.30
2018-03-19T18:24:29.644Z,4.30
2018-03-19T18:26:59.066Z,4.20
2018-03-19T18:29:28.481Z,4.20
2018-03-19T18:31:57.893Z,4.10
2018-03-19T18:34:27.286Z,4.10
2018-03-19T18:36:56.701Z,4.00
2018-03-19T18:39:26.091Z,3.90
2018-03-19T18:41:55.539Z,3.90
2018-03-19T18:44:25.723Z,3.80
2018-03-19T18:46:55.126Z,3.70
2018-03-19T18:49:24.563Z,3.70
2018-03-19T18:51:54.755Z,3.60
2018-03-19T18:54:24.156Z,3.60
2018-03-19T18:56:53.592Z,3.50
2018-03-19T18:59:23.813Z,3.40
2018-03-19T19:01:54.065Z,3.40
2018-03-19T19:04:23.508Z,3.40
2018-03-19T19:06:52.994Z,3.40
2018-03-19T19:09:22.433Z,3.30
2018-03-19T19:11:51.838Z,3.30
2018-03-19T19:14:21.839Z,3.20
2018-03-19T19:16:51.294Z,3.20
2018-03-19T19:19:20.709Z,3.10
2018-03-19T19:21:50.119Z,3.10
2018-03-19T19:24:20.183Z,3.10
2018-03-19T19:26:50.353Z,3.00
2018-03-19T19:29:19.594Z,3.00
2018-03-19T19:31:49.098Z,3.00
2018-03-19T19:34:20.040Z,2.90
2018-03-19T19:36:49.423Z,2.90
2018-03-19T19:39:18.831Z,2.90
2018-03-19T19:41:48.233Z,2.90
2018-03-19T19:44:17.647Z,2.90
2018-03-19T19:46:47.484Z,2.80
2018-03-19T19:49:16.908Z,2.80
2018-03-19T19:51:46.292Z,2.80
2018-03-19T19:54:15.698Z,2.80
2018-03-19T19:56:45.117Z,2.70
2018-03-19T19:59:14.528Z,2.70
2018-03-19T20:01:44.151Z,2.70
2018-03-19T20:04:13.569Z,2.60
2018-03-19T20:06:43.494Z,2.60
2018-03-19T20:09:14.811Z,2.50
2018-03-19T20:11:46.106Z,2.50
2018-03-19T20:14:15.707Z,2.50
2018-03-19T20:16:45.897Z,2.40
2018-03-19T20:19:16.054Z,2.40
2018-03-19T20:21:45.218Z,2.40
2018-03-19T20:24:14.635Z,2.40
2018-03-19T20:26:45.688Z,2.30
2018-03-19T20:29:15.144Z,2.30
2018-03-19T20:31:44.717Z,2.20
2018-03-19T20:34:14.192Z,2.20
2018-03-19T20:36:43.589Z,2.20
2018-03-19T20:39:13.768Z,2.10
2018-03-19T20:41:43.211Z,2.10
2018-03-19T20:44:12.646Z,2.00
2018-03-19T20:46:42.817Z,2.00
2018-03-19T20:49:12.310Z,2.00
2018-03-19T20:51:41.730Z,1.90
2018-03-19T20:54:11.158Z,1.90
2018-03-19T20:56:40.573Z,1.90
2018-03-19T20:59:09.986Z,1.90
2018-03-19T21:01:39.647Z,1.80
2018-03-19T21:04:09.254Z,1.80
2018-03-19T21:06:38.757Z,1.80
2018-03-19T21:09:07.964Z,1.80
2018-03-19T21:11:38.251Z,1.80
2018-03-19T21:14:07.646Z,1.80
2018-03-19T21:16:37.059Z,1.80
2018-03-19T21:19:06.465Z,1.80
2018-03-19T21:21:36.002Z,1.80
2018-03-19T21:24:06.166Z,1.80
2018-03-19T21:26:35.658Z,1.70
2018-03-19T21:29:04.404Z,1.80
2018-03-19T21:31:33.820Z,1.80
2018-03-19T21:34:03.261Z,1.80
2018-03-19T21:36:32.662Z,1.70
2018-03-19T21:39:02.112Z,1.70
2018-03-19T21:41:31.610Z,1.70
2018-03-19T21:44:00.702Z,1.70
2018-03-19T21:46:30.114Z,1.70
2018-03-19T21:48:59.290Z,1.70
2018-03-19T21:51:28.383Z,1.70
2018-03-19T21:53:57.785Z,1.60
2018-03-19T21:56:27.198Z,1.60
2018-03-19T21:58:56.601Z,1.60
2018-03-19T22:01:26.016Z,1.60
2018-03-19T22:03:55.416Z,1.60
2018-03-19T22:06:25.601Z,1.60
2018-03-19T22:08:55.044Z,1.50
2018-03-19T22:11:24.523Z,1.50
2018-03-19T22:13:53.923Z,1.50
2018-03-19T22:16:23.376Z,1.50
2018-03-19T22:18:53.551Z,1.40
2018-03-19T22:21:22.968Z,1.40
2018-03-19T22:23:52.454Z,1.40
2018-03-19T22:26:21.847Z,1.40
2018-03-19T22:28:51.304Z,1.40
2018-03-19T22:31:21.474Z,1.30
2018-03-19T22:33:50.918Z,1.30
2018-03-19T22:36:20.298Z,1.30
2018-03-19T22:38:50.192Z,1.30
2018-03-19T22:41:19.563Z,1.20
2018-03-19T22:43:48.998Z,1.20
2018-03-19T22:46:18.409Z,1.10
2018-03-19T22:48:47.815Z,1.10
2018-03-19T22:51:17.321Z,1.10
2018-03-19T22:53:46.714Z,1.10
2018-03-19T22:56:16.146Z,1.00
2018-03-19T22:58:45.562Z,1.00
2018-03-19T23:01:15.724Z,1.00
2018-03-19T23:03:44.862Z,0.90
2018-03-19T23:06:14.300Z,0.90
2018-03-19T23:08:43.795Z,0.90
2018-03-19T23:11:13.359Z,0.90
2018-03-19T23:13:42.761Z,0.80
2018-03-19T23:16:12.961Z,0.80
2018-03-19T23:18:42.369Z,0.70
2018-03-19T23:21:11.806Z,0.70
2018-03-19T23:23:41.210Z,0.70
2018-03-19T23:26:11.403Z,0.60
2018-03-19T23:28:40.854Z,0.60
2018-03-19T23:31:11.006Z,0.60
2018-03-19T23:33:40.488Z,0.50
2018-03-19T23:36:09.898Z,0.50
2018-03-19T23:38:39.304Z,0.50
2018-03-19T23:41:08.758Z,0.50
2018-03-19T23:43:38.178Z,0.40
2018-03-19T23:46:08.361Z,0.30
2018-03-19T23:48:37.796Z,0.30
2018-03-19T23:51:07.198Z,0.30
2018-03-19T23:53:37.396Z,0.20
2018-03-19T23:56:07.308Z,0.20
2018-03-19T23:58:36.717Z,0.10
